Home   Weather   Turkey   Kuşadası   Past weeks
Flag for Turkey

Past Weather in Kuşadası, Turkey — Yesterday and Last 2 Weeks

Currently: 81 °F. Sunny. (Weather station: Samos Airport, Turkey). See more current weather

Past Weather in Kuşadası — Graph

°F

Kuşadası Temperature Yesterday

Maximum temperature yesterday: 79 °F (at 4:20 pm)
Minimum temperature yesterday: 61 °F (at 6:50 am)
Average temperature yesterday: 71 °F

High & Low Weather Summary for the Past Weeks

 TemperatureHumidityPressure
High81 °F (May 8, 2:50 pm)83% (May 4, 5:50 am)30.12 "Hg (May 4, 5:50 am)
Low57 °F (May 5, 5:50 am)30% (May 8, 3:50 pm)29.59 "Hg (May 10, 7:20 pm)
Average69 °F55%29.90 "Hg
* Reported May 3 2:20 pm — May 18 2:50 pm, Kuşadası. Weather by CustomWeather, © 2024

Note: Actual official high and low records may vary slightly from our data, if they occured in-between our weather recording intervals... More about our weather records

Kuşadası Weather History for the Previous 24 Hours

Scroll right to see more
 ConditionsComfort  
Time TempWeatherWind HumidityBarometerVisibility
2:50 pm
Sat, May 18
81 °FSunny.9 mph45%30.01 "Hg10 mi
2:20 pm77 °FSunny.14 mph51%30.01 "Hg10 mi
1:50 pm79 °FSunny.8 mph51%30.01 "Hg10 mi
1:20 pm79 °FSunny.7 mph48%30.01 "Hg10 mi
12:50 pm79 °FSunny.7 mph48%30.01 "Hg10 mi
12:20 pm77 °FSunny.5 mph51%30.04 "Hg10 mi
11:50 am77 °FSunny.5 mph51%30.04 "Hg10 mi
11:20 am77 °FSunny.7 mph51%30.04 "Hg10 mi
10:50 am77 °FSunny.7 mph47%30.01 "Hg10 mi
10:20 am75 °FSunny.5 mph54%30.01 "Hg10 mi
9:50 am75 °FSunny.7 mph54%30.01 "Hg10 mi
9:20 am73 °FSunny.7 mph57%30.01 "Hg10 mi
8:50 am72 °FPassing clouds.6 mph53%30.01 "HgN/A
8:20 am70 °FSunny.6 mph57%30.01 "Hg10 mi
7:50 am68 °FPassing clouds.5 mph60%29.98 "HgN/A
7:20 am66 °FSunny.2 mph64%29.98 "Hg10 mi
6:50 am63 °FSunny.3 mph73%29.98 "Hg10 mi
6:20 am61 °FSunny.No wind72%29.98 "Hg10 mi
5:50 am61 °FClear.2 mph68%29.98 "Hg10 mi
2:50 am66 °FClear.2 mph60%29.98 "Hg10 mi
11:50 pm
Fri, May 17
70 °FClear.8 mph53%30.01 "Hg10 mi
10:50 pm70 °FClear.3 mph50%30.04 "Hg10 mi
9:50 pm70 °FClear.5 mph50%30.01 "Hg10 mi
8:50 pm70 °FClear.3 mph50%30.01 "Hg10 mi
8:20 pm72 °FClear.3 mph47%30.01 "Hg10 mi
7:50 pm73 °FSunny.6 mph44%29.98 "Hg10 mi
7:20 pm73 °FSunny.6 mph44%29.98 "Hg10 mi
6:50 pm75 °FSunny.7 mph44%29.98 "Hg10 mi
6:20 pm77 °FSunny.5 mph42%29.98 "Hg10 mi
5:50 pm79 °FSunny.6 mph39%29.98 "Hg10 mi
4:50 pm79 °FSunny.3 mph37%29.98 "Hg10 mi
4:20 pm79 °FSunny.7 mph39%29.98 "Hg10 mi
Weather by CustomWeather, © 2024

See weather overview